createdAt,value
2019-02-07T00:00:22.484Z,63.93
2019-02-07T00:00:56.590Z,53.57
2019-02-07T00:01:27.896Z,58.80
2019-02-07T00:01:59.117Z,60.97
2019-02-07T00:02:30.331Z,63.10
2019-02-07T00:03:01.627Z,59.60
2019-02-07T00:03:32.841Z,62.93
2019-02-07T00:04:04.777Z,63.33
2019-02-07T00:04:35.991Z,61.10
2019-02-07T00:05:07.499Z,61.87
2019-02-07T00:05:38.721Z,62.30
2019-02-07T00:06:10.043Z,58.93
2019-02-07T00:06:41.253Z,61.50
2019-02-07T00:07:12.499Z,60.77
2019-02-07T00:07:43.687Z,61.43
2019-02-07T00:08:14.899Z,61.07
2019-02-07T00:08:46.123Z,61.30
2019-02-07T00:09:17.332Z,65.13
2019-02-07T00:09:48.966Z,61.93
2019-02-07T00:10:20.246Z,59.40
2019-02-07T00:10:51.492Z,56.60
2019-02-07T00:11:22.705Z,55.30
2019-02-07T00:11:53.943Z,61.63
2019-02-07T00:12:25.261Z,62.80
2019-02-07T00:12:56.514Z,59.87
2019-02-07T00:13:27.739Z,57.13
2019-02-07T00:13:58.904Z,62.10
2019-02-07T00:14:39.462Z,62.87
2019-02-07T00:15:07.630Z,62.57
2019-02-07T00:15:38.980Z,60.90
2019-02-07T00:16:10.187Z,55.40
2019-02-07T00:16:41.728Z,59.87
2019-02-07T00:17:12.979Z,58.57
2019-02-07T00:17:44.294Z,64.63
2019-02-07T00:18:15.471Z,62.60
2019-02-07T00:18:46.717Z,65.37
2019-02-07T00:19:17.968Z,60.77
2019-02-07T00:19:49.220Z,61.53
2019-02-07T00:20:20.426Z,63.40
2019-02-07T00:20:52.774Z,61.30
2019-02-07T00:21:24.062Z,60.63
2019-02-07T00:21:55.320Z,63.17
2019-02-07T00:22:26.956Z,63.00
2019-02-07T00:22:59.397Z,61.13
2019-02-07T00:23:30.688Z,63.27
2019-02-07T00:24:02.051Z,65.73
2019-02-07T00:24:42.486Z,64.80
2019-02-07T00:25:08.284Z,64.77
2019-02-07T00:25:39.493Z,58.60
2019-02-07T00:26:10.746Z,61.77
2019-02-07T00:26:41.926Z,62.97
2019-02-07T00:27:13.174Z,61.70
2019-02-07T00:27:44.458Z,64.60
2019-02-07T00:28:15.920Z,61.47
2019-02-07T00:28:47.094Z,66.07
2019-02-07T00:29:18.780Z,61.57
2019-02-07T00:29:49.956Z,62.70
2019-02-07T00:30:21.681Z,62.67
2019-02-07T00:30:53.839Z,62.87
2019-02-07T00:31:25.099Z,60.13
2019-02-07T00:31:56.292Z,62.87
2019-02-07T00:32:27.527Z,58.73
2019-02-07T00:32:58.727Z,63.53
2019-02-07T00:33:29.995Z,63.37
2019-02-07T00:34:01.284Z,69.10
2019-02-07T00:34:32.561Z,62.87
2019-02-07T00:35:07.667Z,64.23
2019-02-07T00:35:38.969Z,64.37
2019-02-07T00:36:10.573Z,61.43
2019-02-07T00:36:41.857Z,63.77
2019-02-07T00:37:13.141Z,69.03
2019-02-07T00:37:44.409Z,64.57
2019-02-07T00:38:15.661Z,59.60
2019-02-07T00:38:46.852Z,69.60
2019-02-07T00:39:18.156Z,65.77
2019-02-07T00:39:49.361Z,64.27
2019-02-07T00:40:21.489Z,63.67
2019-02-07T00:40:52.688Z,62.97
2019-02-07T00:41:24.006Z,61.27
2019-02-07T00:41:55.612Z,58.90
2019-02-07T00:42:26.877Z,64.53
2019-02-07T00:42:58.138Z,61.87
2019-02-07T00:43:29.388Z,62.43
2019-02-07T00:44:00.570Z,61.57
2019-02-07T00:44:31.805Z,67.63
2019-02-07T00:45:07.001Z,66.73
2019-02-07T00:45:38.244Z,63.53
2019-02-07T00:46:09.461Z,65.37
2019-02-07T00:46:40.803Z,65.17
2019-02-07T00:47:12.169Z,62.90
2019-02-07T00:47:43.645Z,67.37
2019-02-07T00:48:14.857Z,65.73
2019-02-07T00:48:46.135Z,68.47
2019-02-07T00:49:17.410Z,68.90
2019-02-07T00:49:48.726Z,67.10
2019-02-07T00:50:20.076Z,68.73
2019-02-07T00:50:51.390Z,64.77
2019-02-07T00:51:22.665Z,64.07
2019-02-07T00:51:53.957Z,63.90
2019-02-07T00:52:26.229Z,60.33
2019-02-07T00:52:57.499Z,65.80
2019-02-07T00:53:29.101Z,66.93
2019-02-07T00:54:00.283Z,69.60
2019-02-07T00:54:31.526Z,64.13
2019-02-07T00:55:06.333Z,68.83
2019-02-07T00:55:37.960Z,66.67
2019-02-07T00:56:09.136Z,70.83
2019-02-07T00:56:40.378Z,68.73
2019-02-07T00:57:11.562Z,63.57
2019-02-07T00:57:43.806Z,63.87
2019-02-07T00:58:15.025Z,72.67
2019-02-07T00:58:46.298Z,68.00
2019-02-07T00:59:17.625Z,69.67
2019-02-07T00:59:48.906Z,72.93
2019-02-07T01:00:24.629Z,71.27
2019-02-07T01:00:55.896Z,70.60
2019-02-07T01:01:27.493Z,67.20
2019-02-07T01:01:58.728Z,61.13
2019-02-07T01:02:29.986Z,66.40
2019-02-07T01:03:01.250Z,64.33
2019-02-07T01:03:32.463Z,63.50
2019-02-07T01:04:03.663Z,66.13
2019-02-07T01:04:34.883Z,60.57
2019-02-07T01:05:08.925Z,68.13
2019-02-07T01:05:40.178Z,59.63
2019-02-07T01:06:11.397Z,65.00
2019-02-07T01:06:42.599Z,65.67
2019-02-07T01:07:14.119Z,65.57
2019-02-07T01:07:45.385Z,65.47
2019-02-07T01:08:16.651Z,60.77
2019-02-07T01:08:47.893Z,60.17
2019-02-07T01:09:19.155Z,63.17
2019-02-07T01:09:50.385Z,64.93
2019-02-07T01:10:27.902Z,65.77
2019-02-07T01:10:59.090Z,66.83
2019-02-07T01:11:30.299Z,65.77
2019-02-07T01:12:02.622Z,63.83
2019-02-07T01:12:33.905Z,66.07
2019-02-07T01:13:05.220Z,64.80
2019-02-07T01:13:36.488Z,61.47
2019-02-07T01:14:07.884Z,66.30
2019-02-07T01:14:39.189Z,64.83
2019-02-07T01:15:11.729Z,65.20
2019-02-07T01:15:43.976Z,67.90
2019-02-07T01:16:15.174Z,71.30
2019-02-07T01:16:46.438Z,77.53
2019-02-07T01:17:17.625Z,72.40
2019-02-07T01:17:48.890Z,70.27
2019-02-07T01:18:20.062Z,78.33
2019-02-07T01:18:51.304Z,76.37
2019-02-07T01:19:22.588Z,78.60
2019-02-07T01:19:54.922Z,77.10
2019-02-07T01:20:26.107Z,72.83
2019-02-07T01:20:57.737Z,80.57
2019-02-07T01:21:28.897Z,79.63
2019-02-07T01:22:00.155Z,88.07
2019-02-07T01:22:31.336Z,81.57
2019-02-07T01:23:02.564Z,78.63
2019-02-07T01:23:33.788Z,70.73
2019-02-07T01:24:05.095Z,71.53
2019-02-07T01:24:36.299Z,67.90
2019-02-07T01:25:14.234Z,64.97
2019-02-07T01:25:45.440Z,66.60
2019-02-07T01:26:16.653Z,64.87
2019-02-07T01:26:47.843Z,62.07
2019-02-07T01:27:19.059Z,67.80
2019-02-07T01:27:50.663Z,67.10
2019-02-07T01:28:21.916Z,67.17
2019-02-07T01:28:53.248Z,65.57
2019-02-07T01:29:24.504Z,62.97
2019-02-07T01:29:55.678Z,68.03
2019-02-07T01:30:28.341Z,65.77
2019-02-07T01:30:59.636Z,67.17
2019-02-07T01:31:30.829Z,65.07
2019-02-07T01:32:02.038Z,69.27
2019-02-07T01:32:33.219Z,68.17
2019-02-07T01:33:04.400Z,64.90
2019-02-07T01:33:36.011Z,65.63
2019-02-07T01:34:07.229Z,65.83
2019-02-07T01:34:38.704Z,66.00
2019-02-07T01:35:09.967Z,63.20
2019-02-07T01:35:41.259Z,66.93
2019-02-07T01:36:12.489Z,67.50
2019-02-07T01:36:43.677Z,64.50
2019-02-07T01:37:14.917Z,66.30
2019-02-07T01:37:46.128Z,67.77
2019-02-07T01:38:18.339Z,64.77
2019-02-07T01:38:49.553Z,69.70
2019-02-07T01:39:21.066Z,68.67
2019-02-07T01:39:52.274Z,66.87
2019-02-07T01:40:24.438Z,66.23
2019-02-07T01:40:55.693Z,65.00
2019-02-07T01:41:26.964Z,66.63
2019-02-07T01:41:58.329Z,68.50
2019-02-07T01:42:29.699Z,71.30
2019-02-07T01:43:00.984Z,72.97
2019-02-07T01:43:32.272Z,64.30
2019-02-07T01:44:03.532Z,63.60
2019-02-07T01:44:34.741Z,61.63
2019-02-07T01:45:13.108Z,63.87
2019-02-07T01:45:43.516Z,62.80
2019-02-07T01:46:14.952Z,65.20
2019-02-07T01:46:46.164Z,69.00
2019-02-07T01:47:17.412Z,66.77
2019-02-07T01:47:49.338Z,62.50
2019-02-07T01:48:20.595Z,64.87
2019-02-07T01:48:52.133Z,67.17
2019-02-07T01:49:23.495Z,65.60
2019-02-07T01:49:54.769Z,64.83
2019-02-07T01:50:26.041Z,57.97
2019-02-07T01:50:57.313Z,62.30
2019-02-07T01:51:28.629Z,66.33
2019-02-07T01:52:00.195Z,62.10
2019-02-07T01:52:31.475Z,68.97
2019-02-07T01:53:02.795Z,63.63
2019-02-07T01:53:34.073Z,67.67
2019-02-07T01:54:05.654Z,64.93
2019-02-07T01:54:36.929Z,63.97
2019-02-07T01:55:08.195Z,61.93
2019-02-07T01:55:39.467Z,61.17
2019-02-07T01:56:11.805Z,69.27
2019-02-07T01:56:42.973Z,67.37
2019-02-07T01:57:14.221Z,64.30
2019-02-07T01:57:45.819Z,64.53
2019-02-07T01:58:17.082Z,65.70
2019-02-07T01:58:48.270Z,63.53
2019-02-07T01:59:19.532Z,61.93
2019-02-07T01:59:50.710Z,64.80
2019-02-07T02:00:21.945Z,64.10
2019-02-07T02:00:53.201Z,63.23
2019-02-07T02:01:24.373Z,66.53
2019-02-07T02:01:55.580Z,65.10
2019-02-07T02:02:26.780Z,64.80
2019-02-07T02:02:57.954Z,66.10
2019-02-07T02:03:29.552Z,63.60
2019-02-07T02:04:00.795Z,67.17
2019-02-07T02:04:31.999Z,65.77
2019-02-07T02:05:04.951Z,66.57
2019-02-07T02:05:36.169Z,62.03
2019-02-07T02:06:07.403Z,68.70
2019-02-07T02:06:38.659Z,64.10
2019-02-07T02:07:09.998Z,63.17
2019-02-07T02:07:41.165Z,62.03
2019-02-07T02:08:12.341Z,69.13
2019-02-07T02:08:43.555Z,66.47
2019-02-07T02:09:15.069Z,64.37
2019-02-07T02:09:46.278Z,70.10
2019-02-07T02:10:27.591Z,61.23
2019-02-07T02:10:58.771Z,62.90
2019-02-07T02:11:30.053Z,59.93
2019-02-07T02:12:01.319Z,64.87
2019-02-07T02:12:32.556Z,64.90
2019-02-07T02:13:03.715Z,63.30
2019-02-07T02:13:35.224Z,67.37
2019-02-07T02:14:06.442Z,62.40
2019-02-07T02:14:38.684Z,58.20
2019-02-07T02:15:10.880Z,62.83
2019-02-07T02:15:42.100Z,60.63
2019-02-07T02:16:13.284Z,65.73
2019-02-07T02:16:44.536Z,66.63
2019-02-07T02:17:16.132Z,64.60
2019-02-07T02:17:47.503Z,64.53
2019-02-07T02:18:19.051Z,67.60
2019-02-07T02:18:50.313Z,68.47
2019-02-07T02:19:21.530Z,67.77
2019-02-07T02:19:52.752Z,78.27
2019-02-07T02:20:24.270Z,72.27
2019-02-07T02:20:55.595Z,73.77
2019-02-07T02:21:26.781Z,68.87
2019-02-07T02:21:58.017Z,65.53
2019-02-07T02:22:29.215Z,72.40
2019-02-07T02:23:00.850Z,67.53
2019-02-07T02:23:32.149Z,74.67
2019-02-07T02:24:03.365Z,67.50
2019-02-07T02:24:34.585Z,70.13
2019-02-07T02:25:10.277Z,69.17
2019-02-07T02:25:41.568Z,68.77
2019-02-07T02:26:12.776Z,70.10
2019-02-07T02:26:44.006Z,74.53
2019-02-07T02:27:15.283Z,70.30
2019-02-07T02:27:46.496Z,68.00
2019-02-07T02:28:17.718Z,70.43
2019-02-07T02:28:49.232Z,68.80
2019-02-07T02:29:20.410Z,73.13
2019-02-07T02:29:51.635Z,66.13
2019-02-07T02:30:32.036Z,70.03
2019-02-07T02:31:03.738Z,68.60
2019-02-07T02:31:35.190Z,69.13
2019-02-07T02:32:06.442Z,70.10
2019-02-07T02:32:37.599Z,70.00
2019-02-07T02:33:08.894Z,66.63
2019-02-07T02:33:40.073Z,68.63
2019-02-07T02:34:11.336Z,70.47
2019-02-07T02:34:42.545Z,66.33
2019-02-07T02:35:13.822Z,69.00
2019-02-07T02:35:45.556Z,69.50
2019-02-07T02:36:16.925Z,66.53
2019-02-07T02:36:48.591Z,74.50
2019-02-07T02:37:19.864Z,69.73
2019-02-07T02:37:51.151Z,67.60
2019-02-07T02:38:22.409Z,67.87
2019-02-07T02:38:53.701Z,66.57
2019-02-07T02:39:24.987Z,67.60
2019-02-07T02:39:56.243Z,65.63
2019-02-07T02:40:28.400Z,67.97
2019-02-07T02:41:00.678Z,72.97
2019-02-07T02:41:31.948Z,68.40
2019-02-07T02:42:03.145Z,64.27
2019-02-07T02:42:34.766Z,67.13
2019-02-07T02:43:05.975Z,65.63
2019-02-07T02:43:37.186Z,67.50
2019-02-07T02:44:08.405Z,66.77
2019-02-07T02:44:39.643Z,65.30
2019-02-07T02:45:20.338Z,64.03
2019-02-07T02:45:51.617Z,62.97
2019-02-07T02:46:22.825Z,63.37
2019-02-07T02:46:54.092Z,60.13
2019-02-07T02:47:25.260Z,65.80
2019-02-07T02:47:56.521Z,65.20
2019-02-07T02:48:27.742Z,61.80
2019-02-07T02:48:58.992Z,68.70
2019-02-07T02:49:30.567Z,66.77
2019-02-07T02:50:04.220Z,61.47
2019-02-07T02:50:35.793Z,64.57
2019-02-07T02:51:07.087Z,63.53
2019-02-07T02:51:38.267Z,65.30
2019-02-07T02:52:09.568Z,67.80
2019-02-07T02:52:40.834Z,64.10
2019-02-07T02:53:12.087Z,64.03
2019-02-07T02:53:43.280Z,69.13
2019-02-07T02:54:31.093Z,68.23
2019-02-07T02:55:04.085Z,69.70
2019-02-07T02:55:37.127Z,72.90
2019-02-07T02:56:08.739Z,68.77
2019-02-07T02:56:40.147Z,70.97
2019-02-07T02:57:11.416Z,72.87
2019-02-07T02:57:42.711Z,69.40
2019-02-07T02:58:14.007Z,72.63
2019-02-07T02:58:45.261Z,69.53
2019-02-07T02:59:16.578Z,66.40
2019-02-07T02:59:48.302Z,69.77
2019-02-07T03:00:21.430Z,67.03
2019-02-07T03:00:52.664Z,70.10
2019-02-07T03:01:38.129Z,69.90
2019-02-07T03:02:29.545Z,69.27
2019-02-07T03:03:12.638Z,61.53
2019-02-07T03:03:45.743Z,63.40
2019-02-07T03:04:18.829Z,64.43
2019-02-07T03:04:54.472Z,64.33
2019-02-07T03:05:27.667Z,66.07
2019-02-07T03:06:01.803Z,66.00
2019-02-07T03:06:40.519Z,68.60
2019-02-07T03:07:20.510Z,67.43
2019-02-07T03:07:53.937Z,66.37
2019-02-07T03:08:27.127Z,64.37
2019-02-07T03:09:00.640Z,67.33
2019-02-07T03:09:36.659Z,67.53
2019-02-07T03:10:11.315Z,65.93
2019-02-07T03:10:50.041Z,65.23
2019-02-07T03:11:36.042Z,69.47
2019-02-07T03:12:19.331Z,68.53
2019-02-07T03:12:59.238Z,66.13
2019-02-07T03:13:35.267Z,62.43
2019-02-07T03:14:20.411Z,61.93
2019-02-07T03:14:53.488Z,64.53
2019-02-07T03:15:35.268Z,60.70
2019-02-07T03:16:11.081Z,68.20
2019-02-07T03:16:54.331Z,63.53
2019-02-07T03:17:30.435Z,60.23
2019-02-07T03:18:16.411Z,65.53
2019-02-07T03:19:06.031Z,64.17
2019-02-07T03:19:48.090Z,62.77
2019-02-07T03:20:23.913Z,66.80
2019-02-07T03:20:59.954Z,65.30
2019-02-07T03:21:33.133Z,68.57
2019-02-07T03:22:22.229Z,65.40
2019-02-07T03:23:07.255Z,61.63
2019-02-07T03:23:49.555Z,65.73
2019-02-07T03:24:29.510Z,62.67
2019-02-07T03:25:02.669Z,68.70
2019-02-07T03:25:44.725Z,69.20
2019-02-07T03:26:26.893Z,65.80
2019-02-07T03:26:59.969Z,73.27
2019-02-07T03:27:42.131Z,62.60
2019-02-07T03:28:24.183Z,60.60
2019-02-07T03:29:10.332Z,70.83
2019-02-07T03:30:00.529Z,65.70
2019-02-07T03:30:44.716Z,67.33
2019-02-07T03:31:24.856Z,68.20
2019-02-07T03:32:04.401Z,63.80
2019-02-07T03:32:43.100Z,62.10
2019-02-07T03:33:18.880Z,64.53
2019-02-07T03:34:03.693Z,69.30
2019-02-07T03:34:53.509Z,68.67
2019-02-07T03:35:24.994Z,66.07
2019-02-07T03:35:58.137Z,64.83
2019-02-07T03:36:47.716Z,65.53
2019-02-07T03:37:20.899Z,64.77
2019-02-07T03:37:56.841Z,64.80
2019-02-07T03:38:30.076Z,62.93
2019-02-07T03:39:14.899Z,69.10
2019-02-07T03:39:51.947Z,68.87
2019-02-07T03:40:31.833Z,71.63
2019-02-07T03:41:06.909Z,72.80
2019-02-07T03:41:56.712Z,69.70
2019-02-07T03:42:29.855Z,62.10
2019-02-07T03:43:08.459Z,61.23
2019-02-07T03:43:39.708Z,73.07
2019-02-07T03:44:24.540Z,67.40
2019-02-07T03:45:00.861Z,69.97
2019-02-07T03:45:34.037Z,70.47
2019-02-07T03:46:10.180Z,69.00
2019-02-07T03:46:49.094Z,73.47
2019-02-07T03:47:27.985Z,70.77
2019-02-07T03:48:16.410Z,68.80
2019-02-07T03:49:01.519Z,68.17
2019-02-07T03:49:50.981Z,67.13
2019-02-07T03:50:24.330Z,67.57
2019-02-07T03:50:57.422Z,68.37
2019-02-07T03:51:30.952Z,64.60
2019-02-07T03:52:04.033Z,71.90
2019-02-07T03:52:49.515Z,62.97
2019-02-07T03:53:22.681Z,62.23
2019-02-07T03:53:55.839Z,68.10
2019-02-07T03:54:28.899Z,68.60
2019-02-07T03:55:13.763Z,67.40
2019-02-07T03:55:55.445Z,70.47
2019-02-07T03:56:31.624Z,72.73
2019-02-07T03:57:04.714Z,72.03
2019-02-07T03:57:38.089Z,69.57
2019-02-07T03:58:11.222Z,71.70
2019-02-07T03:58:50.020Z,68.13
2019-02-07T03:59:38.157Z,76.60
2019-02-07T04:00:15.025Z,70.10
2019-02-07T04:00:53.876Z,71.27
2019-02-07T04:01:29.922Z,70.33
2019-02-07T04:02:18.008Z,71.03
2019-02-07T04:03:07.651Z,70.73
2019-02-07T04:03:40.757Z,72.03
2019-02-07T04:04:31.643Z,74.03
2019-02-07T04:05:06.945Z,72.20
2019-02-07T04:05:45.735Z,73.13
2019-02-07T04:06:18.847Z,72.23
2019-02-07T04:07:08.511Z,71.07
2019-02-07T04:07:41.617Z,72.87
2019-02-07T04:08:26.704Z,75.87
2019-02-07T04:08:59.791Z,73.00
2019-02-07T04:09:33.703Z,74.23
2019-02-07T04:10:10.625Z,76.83
2019-02-07T04:10:44.854Z,76.03
2019-02-07T04:11:23.786Z,69.80
2019-02-07T04:11:55.026Z,72.10
2019-02-07T04:12:37.909Z,75.77
2019-02-07T04:13:11.066Z,78.83
2019-02-07T04:13:44.338Z,69.67
2019-02-07T04:14:35.366Z,77.63
2019-02-07T04:15:08.610Z,78.67
2019-02-07T04:15:51.675Z,76.37
2019-02-07T04:16:24.756Z,65.03
2019-02-07T04:17:03.464Z,73.37
2019-02-07T04:17:52.919Z,69.37
2019-02-07T04:18:37.877Z,67.60
2019-02-07T04:19:28.771Z,69.63
2019-02-07T04:20:07.575Z,66.83
2019-02-07T04:20:40.691Z,66.90
2019-02-07T04:21:14.816Z,73.53
2019-02-07T04:21:50.652Z,71.87
2019-02-07T04:22:21.872Z,74.07
2019-02-07T04:22:54.973Z,73.13
2019-02-07T04:23:40.005Z,69.23
2019-02-07T04:24:13.317Z,72.83
2019-02-07T04:24:52.899Z,70.83
2019-02-07T04:25:25.972Z,68.97
2019-02-07T04:26:15.211Z,68.70
2019-02-07T04:26:50.911Z,69.67
2019-02-07T04:27:24.062Z,70.03
2019-02-07T04:28:01.008Z,70.17
2019-02-07T04:28:39.957Z,73.63
2019-02-07T04:29:21.854Z,80.87
2019-02-07T04:29:55.112Z,84.23
2019-02-07T04:30:44.977Z,78.47
2019-02-07T04:31:18.078Z,72.13
2019-02-07T04:31:57.117Z,80.20
2019-02-07T04:32:47.948Z,76.10
2019-02-07T04:33:19.158Z,76.17
2019-02-07T04:33:55.579Z,80.40
2019-02-07T04:34:37.753Z,85.17
2019-02-07T04:35:10.961Z,81.73
2019-02-07T04:36:00.473Z,83.30
2019-02-07T04:36:33.590Z,72.10
2019-02-07T04:37:09.679Z,76.97
2019-02-07T04:37:48.511Z,81.83
2019-02-07T04:38:21.629Z,80.83
2019-02-07T04:39:06.862Z,81.90
2019-02-07T04:39:38.488Z,83.70
2019-02-07T04:40:18.433Z,78.97
2019-02-07T04:40:54.366Z,77.57
2019-02-07T04:41:30.942Z,73.33
2019-02-07T04:42:06.870Z,78.50
2019-02-07T04:42:40.148Z,76.13
2019-02-07T04:43:13.229Z,72.87
2019-02-07T04:43:46.345Z,76.73
2019-02-07T04:44:31.247Z,79.77
2019-02-07T04:45:23.683Z,78.37
2019-02-07T04:46:02.591Z,75.73
2019-02-07T04:46:36.026Z,69.83
2019-02-07T04:47:25.404Z,67.63
2019-02-07T04:48:04.512Z,68.70
2019-02-07T04:48:38.285Z,74.27
2019-02-07T04:49:26.432Z,70.43
2019-02-07T04:50:02.922Z,74.07
2019-02-07T04:50:39.909Z,78.10
2019-02-07T04:51:18.929Z,70.67
2019-02-07T04:52:05.044Z,79.50
2019-02-07T04:52:44.079Z,78.87
2019-02-07T04:53:33.829Z,75.83
2019-02-07T04:54:07.107Z,80.97
2019-02-07T04:54:46.219Z,80.37
2019-02-07T04:55:19.392Z,82.37
2019-02-07T04:56:01.210Z,88.97
2019-02-07T04:56:36.992Z,74.10
2019-02-07T04:57:16.163Z,80.13
2019-02-07T04:57:54.958Z,73.83
2019-02-07T04:58:31.077Z,78.00
2019-02-07T04:59:16.129Z,86.63
2019-02-07T05:00:00.839Z,87.50
2019-02-07T05:00:34.005Z,81.43
2019-02-07T05:01:07.803Z,78.63
2019-02-07T05:01:39.135Z,74.43
2019-02-07T05:02:20.775Z,77.50
2019-02-07T05:02:52.027Z,78.90
2019-02-07T05:03:23.199Z,81.50
2019-02-07T05:04:00.155Z,79.13
2019-02-07T05:04:35.803Z,73.63
2019-02-07T05:05:18.443Z,77.07
2019-02-07T05:05:51.663Z,77.90
2019-02-07T05:06:41.331Z,73.03
2019-02-07T05:07:14.806Z,74.87
2019-02-07T05:07:47.982Z,75.87
2019-02-07T05:08:30.481Z,73.23
2019-02-07T05:09:03.701Z,70.30
2019-02-07T05:09:44.607Z,74.57
2019-02-07T05:10:20.394Z,77.23
2019-02-07T05:10:53.601Z,77.97
2019-02-07T05:11:30.521Z,77.47
2019-02-07T05:12:09.617Z,70.73
2019-02-07T05:12:58.964Z,72.03
2019-02-07T05:13:35.096Z,74.47
2019-02-07T05:14:17.329Z,75.10
2019-02-07T05:15:02.302Z,74.47
2019-02-07T05:15:35.576Z,73.07
2019-02-07T05:16:09.491Z,67.90
2019-02-07T05:16:59.159Z,73.90
2019-02-07T05:17:38.324Z,69.90
2019-02-07T05:18:15.193Z,72.03
2019-02-07T05:18:54.321Z,79.73
2019-02-07T05:19:36.096Z,73.00
2019-02-07T05:20:10.167Z,74.00
2019-02-07T05:20:48.887Z,76.23
2019-02-07T05:21:28.025Z,71.63
2019-02-07T05:21:59.174Z,73.80
2019-02-07T05:22:35.221Z,71.17
2019-02-07T05:23:21.171Z,73.30
2019-02-07T05:23:52.410Z,70.77
2019-02-07T05:24:26.888Z,72.43
2019-02-07T05:25:05.993Z,74.63
2019-02-07T05:25:37.568Z,73.33
2019-02-07T05:26:16.515Z,80.27
2019-02-07T05:26:56.996Z,69.57
2019-02-07T05:27:28.287Z,80.50
2019-02-07T05:28:01.493Z,76.50
2019-02-07T05:28:34.670Z,73.47
2019-02-07T05:29:25.930Z,78.00
2019-02-07T05:29:59.098Z,78.67
2019-02-07T05:30:39.320Z,78.27
2019-02-07T05:31:12.425Z,74.20
2019-02-07T05:31:55.542Z,82.10
2019-02-07T05:32:45.327Z,80.93
2019-02-07T05:33:24.133Z,76.10
2019-02-07T05:33:57.241Z,74.87
2019-02-07T05:34:46.995Z,87.07
2019-02-07T05:35:25.905Z,85.33
2019-02-07T05:36:12.503Z,85.23
2019-02-07T05:36:54.654Z,80.37
2019-02-07T05:37:39.872Z,82.23
2019-02-07T05:38:19.823Z,79.53
2019-02-07T05:38:53.009Z,85.80
2019-02-07T05:39:42.852Z,79.80
2019-02-07T05:40:15.978Z,75.83
2019-02-07T05:41:05.482Z,80.40
2019-02-07T05:41:45.486Z,79.93
2019-02-07T05:42:18.652Z,77.03
2019-02-07T05:43:09.900Z,75.33
2019-02-07T05:43:59.362Z,75.50
2019-02-07T05:44:41.159Z,78.63
2019-02-07T05:45:18.136Z,79.73
2019-02-07T05:45:49.405Z,79.23
2019-02-07T05:46:22.792Z,82.10
2019-02-07T05:46:54.055Z,74.97
2019-02-07T05:47:31.397Z,73.83
2019-02-07T05:48:11.459Z,75.20
2019-02-07T05:48:50.575Z,77.07
2019-02-07T05:49:29.503Z,76.50
2019-02-07T05:50:02.657Z,81.67
2019-02-07T05:50:53.489Z,88.17
2019-02-07T05:51:38.732Z,89.87
2019-02-07T05:52:11.787Z,88.03
2019-02-07T05:52:59.963Z,89.07
2019-02-07T05:53:34.019Z,93.17
2019-02-07T05:54:07.179Z,93.10
2019-02-07T05:54:42.842Z,93.80
2019-02-07T05:55:15.984Z,95.63
2019-02-07T05:56:05.236Z,94.23
2019-02-07T05:56:48.634Z,95.33
2019-02-07T05:57:30.596Z,91.30
2019-02-07T05:58:06.438Z,89.77
2019-02-07T05:58:59.067Z,89.33
2019-02-07T05:59:29.226Z,95.60
2019-02-07T06:00:00.510Z,89.73
2019-02-07T06:00:33.751Z,83.27
2019-02-07T06:01:05.201Z,82.43
2019-02-07T06:01:47.009Z,84.93
2019-02-07T06:02:36.591Z,79.87
2019-02-07T06:03:27.287Z,78.50
2019-02-07T06:04:03.263Z,72.17
2019-02-07T06:04:42.370Z,77.93
2019-02-07T06:05:15.439Z,82.93
2019-02-07T06:05:51.474Z,77.23
2019-02-07T06:06:30.559Z,75.17
2019-02-07T06:07:06.475Z,77.57
2019-02-07T06:07:49.413Z,83.20
2019-02-07T06:08:34.499Z,74.07
2019-02-07T06:09:26.050Z,75.13
2019-02-07T06:10:15.711Z,78.17
2019-02-07T06:10:51.380Z,77.50
2019-02-07T06:11:25.568Z,76.53
2019-02-07T06:12:04.521Z,77.77
2019-02-07T06:12:40.300Z,79.87
2019-02-07T06:13:16.188Z,76.77
2019-02-07T06:14:04.233Z,72.70
2019-02-07T06:14:43.439Z,68.57
2019-02-07T06:15:25.591Z,72.63
2019-02-07T06:16:15.124Z,74.20
2019-02-07T06:16:48.251Z,81.00
2019-02-07T06:17:28.881Z,84.97
2019-02-07T06:18:18.507Z,74.97
2019-02-07T06:19:08.131Z,82.30
2019-02-07T06:19:57.825Z,77.30
2019-02-07T06:20:33.975Z,77.03
2019-02-07T06:21:09.970Z,75.20
2019-02-07T06:21:48.728Z,77.83
2019-02-07T06:22:33.535Z,75.80
2019-02-07T06:23:23.467Z,76.67
2019-02-07T06:23:56.545Z,73.87
2019-02-07T06:24:29.670Z,78.70
2019-02-07T06:25:08.415Z,72.37
2019-02-07T06:25:41.589Z,79.07
2019-02-07T06:26:31.015Z,76.53
2019-02-07T06:27:08.135Z,73.20
2019-02-07T06:27:51.690Z,81.20
2019-02-07T06:28:35.288Z,78.37
2019-02-07T06:29:10.966Z,73.97
2019-02-07T06:29:44.091Z,78.23
2019-02-07T06:30:26.341Z,79.90
2019-02-07T06:31:00.469Z,80.87
2019-02-07T06:31:33.591Z,83.00
2019-02-07T06:32:09.556Z,83.43
2019-02-07T06:33:00.301Z,83.10
2019-02-07T06:33:51.443Z,87.57
2019-02-07T06:34:29.056Z,93.40
2019-02-07T06:34:56.751Z,90.27
2019-02-07T06:35:46.312Z,94.77
2019-02-07T06:36:19.393Z,88.87
2019-02-07T06:36:59.659Z,91.03
2019-02-07T06:37:35.560Z,89.93
2019-02-07T06:38:11.356Z,91.10
2019-02-07T06:38:45.513Z,92.00
2019-02-07T06:39:22.562Z,85.37
2019-02-07T06:40:07.741Z,91.97
2019-02-07T06:40:40.858Z,93.97
2019-02-07T06:41:13.994Z,99.30
2019-02-07T06:41:50.883Z,100.07
2019-02-07T06:42:24.166Z,95.03
2019-02-07T06:43:15.336Z,98.90
2019-02-07T06:43:51.107Z,85.57
2019-02-07T06:44:33.083Z,89.00
2019-02-07T06:45:23.033Z,93.47
2019-02-07T06:46:07.072Z,86.77
2019-02-07T06:46:56.716Z,87.23
2019-02-07T06:47:39.979Z,80.73
2019-02-07T06:48:11.230Z,88.60
2019-02-07T06:49:00.679Z,88.40
2019-02-07T06:49:39.727Z,87.37
2019-02-07T06:50:18.848Z,87.53
2019-02-07T06:50:54.885Z,86.80
2019-02-07T06:51:46.017Z,88.67
2019-02-07T06:52:19.181Z,91.80
2019-02-07T06:53:07.581Z,97.80
2019-02-07T06:53:41.660Z,86.17
2019-02-07T06:54:26.494Z,86.10
2019-02-07T06:54:57.748Z,83.57
2019-02-07T06:55:30.822Z,84.80
2019-02-07T06:56:20.608Z,89.83
2019-02-07T06:56:51.818Z,84.13
2019-02-07T06:57:25.730Z,92.33
2019-02-07T06:58:01.736Z,89.43
2019-02-07T06:58:49.784Z,91.67
2019-02-07T06:59:28.755Z,83.83
2019-02-07T07:00:14.075Z,83.47
2019-02-07T07:00:45.247Z,82.17
2019-02-07T07:01:34.740Z,82.70
2019-02-07T07:02:12.119Z,81.37
2019-02-07T07:03:01.814Z,83.17
2019-02-07T07:03:41.845Z,80.57
2019-02-07T07:04:28.146Z,81.07
2019-02-07T07:05:17.845Z,80.37
2019-02-07T07:05:55.031Z,82.33
2019-02-07T07:06:36.932Z,80.27
2019-02-07T07:07:10.865Z,80.30
2019-02-07T07:07:52.910Z,87.27
2019-02-07T07:08:28.755Z,80.73
2019-02-07T07:09:18.472Z,87.20
2019-02-07T07:10:00.582Z,87.03
2019-02-07T07:10:48.408Z,82.37
2019-02-07T07:11:21.548Z,82.43
2019-02-07T07:12:04.716Z,87.63
2019-02-07T07:12:44.877Z,84.37
2019-02-07T07:13:32.860Z,83.83
2019-02-07T07:14:08.696Z,76.83
2019-02-07T07:14:48.245Z,82.53
2019-02-07T07:15:27.091Z,86.10
2019-02-07T07:16:16.805Z,84.50
2019-02-07T07:16:49.866Z,83.33
2019-02-07T07:17:28.634Z,82.77
2019-02-07T07:18:13.451Z,80.40
2019-02-07T07:19:03.121Z,77.13
2019-02-07T07:19:46.418Z,85.13
2019-02-07T07:20:25.550Z,84.50
2019-02-07T07:20:59.523Z,79.37
2019-02-07T07:21:44.977Z,78.13
2019-02-07T07:22:20.989Z,81.80
2019-02-07T07:23:06.991Z,80.17
2019-02-07T07:23:56.530Z,81.67
2019-02-07T07:24:39.904Z,81.13
2019-02-07T07:25:30.914Z,83.83
2019-02-07T07:26:20.735Z,80.33
2019-02-07T07:27:02.578Z,80.60
2019-02-07T07:27:51.976Z,78.93
2019-02-07T07:28:29.390Z,87.77
2019-02-07T07:29:09.346Z,90.33
2019-02-07T07:29:42.535Z,88.57
2019-02-07T07:30:15.716Z,91.90
2019-02-07T07:30:54.885Z,88.10
2019-02-07T07:31:30.916Z,88.27
2019-02-07T07:32:10.339Z,90.30
2019-02-07T07:32:59.688Z,93.67
2019-02-07T07:33:47.837Z,94.60
2019-02-07T07:34:29.642Z,98.67
2019-02-07T07:35:11.715Z,124.30
2019-02-07T07:35:59.806Z,140.77
2019-02-07T07:36:38.650Z,137.33
2019-02-07T07:37:11.729Z,137.60
2019-02-07T07:37:44.924Z,145.30
2019-02-07T07:38:23.658Z,137.97
2019-02-07T07:38:56.824Z,142.77
2019-02-07T07:39:33.894Z,132.10
2019-02-07T07:40:10.138Z,126.87
2019-02-07T07:40:49.218Z,121.63
2019-02-07T07:41:25.212Z,111.37
2019-02-07T07:41:59.148Z,110.60
2019-02-07T07:42:48.547Z,105.67
2019-02-07T07:43:37.883Z,97.73
2019-02-07T07:44:19.885Z,88.33